Time;durP1;ratioP1;P1;durP2;ratioP2;P2;SDS_P1;SDS_P2;PMS_P1;PMS_P2;Temp;Humidity;BMP_temperature;BMP_pressure;BME280_temperature;BME280_humidity;BME280_pressure;Samples;Min_cycle;Max_cycle;Signal;HPM_P1;HPM_P2
2023/10/25 00:01:05;;;;;;;84.78;54.88;;;27.30;99.90;;;;;;5057935;28;20047;-64
2023/10/25 00:03:32;;;;;;;86.88;55.63;;;27.20;99.90;;;;;;5072641;28;20462;-62
2023/10/25 00:05:59;;;;;;;86.50;54.88;;;27.30;99.90;;;;;;5066419;28;20382;-64
2023/10/25 00:08:26;;;;;;;88.82;54.13;;;27.10;99.90;;;;;;5054283;28;20468;-63
2023/10/25 00:11:02;;;;;;;81.07;53.42;;;27.00;99.90;;;;;;5056436;28;20096;-64
2023/10/25 00:13:29;;;;;;;111.93;71.10;;;27.00;99.90;;;;;;5056119;28;20025;-67
2023/10/25 00:15:55;;;;;;;90.13;59.67;;;27.20;99.90;;;;;;5056131;28;20060;-64
2023/10/25 00:18:24;;;;;;;95.15;63.35;;;27.10;99.90;;;;;;5056275;28;20029;-64
2023/10/25 00:20:51;;;;;;;93.63;59.92;;;27.20;99.90;;;;;;5055834;28;20053;-63
2023/10/25 00:23:19;;;;;;;99.57;63.63;;;27.30;99.90;;;;;;5056361;28;20020;-65
2023/10/25 00:25:48;;;;;;;103.43;65.30;;;27.40;99.90;;;;;;5069574;28;20039;-64
2023/10/25 00:28:15;;;;;;;104.82;65.18;;;27.40;99.90;;;;;;5071885;28;20025;-64
2023/10/25 00:30:43;;;;;;;119.72;71.78;;;27.40;99.90;;;;;;5073029;28;20021;-65
2023/10/25 00:33:11;;;;;;;117.40;75.25;;;27.40;99.90;;;;;;5075467;28;20024;-64
2023/10/25 00:35:37;;;;;;;121.20;80.43;;;27.40;99.90;;;;;;5075484;28;20036;-65
2023/10/25 00:38:04;;;;;;;116.00;74.07;;;27.50;99.90;;;;;;5075470;28;20473;-65
2023/10/25 00:40:31;;;;;;;121.57;77.20;;;27.50;99.90;;;;;;5075231;28;20043;-64
2023/10/25 00:43:15;;;;;;;120.97;77.90;;;27.50;99.90;;;;;;5075171;28;20150;-64
2023/10/25 00:46:09;;;;;;;118.07;74.25;;;27.60;99.90;;;;;;5072632;28;20031;-65
2023/10/25 00:48:37;;;;;;;105.07;70.80;;;27.70;99.90;;;;;;5075677;28;20032;-65
2023/10/25 00:51:04;;;;;;;105.70;66.88;;;27.80;99.90;;;;;;5075575;28;20021;-64
2023/10/25 00:53:33;;;;;;;103.03;68.55;;;27.80;99.90;;;;;;5075163;28;20440;-64
2023/10/25 00:56:02;;;;;;;108.80;68.43;;;27.90;99.90;;;;;;5075238;28;20031;-64
2023/10/25 00:58:30;;;;;;;100.97;67.70;;;27.90;99.90;;;;;;5074853;28;20031;-66
2023/10/25 01:00:57;;;;;;;100.75;68.10;;;28.00;99.90;;;;;;5074889;28;20040;-66
2023/10/25 01:03:24;;;;;;;103.00;64.35;;;28.00;99.90;;;;;;5074836;28;20519;-67
2023/10/25 01:05:52;;;;;;;93.72;62.67;;;28.00;99.90;;;;;;5074873;28;20473;-65
2023/10/25 01:08:20;;;;;;;99.60;69.10;;;28.10;99.90;;;;;;5075062;28;20029;-66
2023/10/25 01:10:56;;;;;;;92.15;62.65;;;28.10;99.90;;;;;;5074834;28;20052;-67
2023/10/25 01:13:23;;;;;;;95.95;65.65;;;28.20;99.90;;;;;;5074918;28;20553;-66
2023/10/25 01:15:50;;;;;;;111.78;67.50;;;28.30;99.90;;;;;;5075111;28;20103;-66
2023/10/25 01:18:17;;;;;;;100.07;65.95;;;28.30;99.90;;;;;;5075110;28;20104;-66
2023/10/25 01:20:44;;;;;;;113.95;70.50;;;28.40;99.90;;;;;;5074843;28;20063;-66
2023/10/25 01:23:12;;;;;;;99.68;69.88;;;28.40;99.90;;;;;;5074846;28;20025;-65
2023/10/25 01:25:40;;;;;;;89.05;56.03;;;28.60;99.90;;;;;;5074938;28;20105;-65
2023/10/25 01:28:07;;;;;;;96.63;66.07;;;28.50;99.90;;;;;;5074963;28;20028;-67
2023/10/25 01:30:34;;;;;;;105.88;68.22;;;28.50;99.90;;;;;;5074884;28;20037;-64
2023/10/25 01:33:01;;;;;;;99.00;64.53;;;28.60;99.90;;;;;;5074984;28;20031;-65
2023/10/25 01:35:28;;;;;;;101.35;65.00;;;28.70;99.90;;;;;;5074581;28;20378;-64
2023/10/25 01:37:55;;;;;;;96.85;60.53;;;28.80;99.90;;;;;;5074650;28;20151;-64
2023/10/25 01:40:22;;;;;;;87.75;60.42;;;28.80;99.90;;;;;;5074502;28;20028;-64
2023/10/25 01:42:53;;;;;;;91.72;64.13;;;28.90;99.90;;;;;;5074296;28;20017;-64
2023/10/25 01:45:23;;;;;;;102.43;69.32;;;29.00;99.90;;;;;;5074385;28;20058;-64
2023/10/25 01:47:51;;;;;;;99.30;70.35;;;29.00;99.90;;;;;;5074464;28;20025;-65
2023/10/25 01:50:19;;;;;;;104.82;66.40;;;29.10;99.90;;;;;;5074165;28;20059;-65
2023/10/25 01:52:46;;;;;;;109.55;71.55;;;29.10;99.90;;;;;;5074193;28;20079;-65
2023/10/25 01:55:12;;;;;;;95.28;63.15;;;29.20;99.90;;;;;;5074327;28;20024;-65
2023/10/25 01:57:39;;;;;;;93.47;62.45;;;29.20;99.90;;;;;;5074082;28;20024;-64
2023/10/25 02:00:06;;;;;;;88.53;61.05;;;29.10;99.90;;;;;;5073769;28;20053;-64
2023/10/25 02:02:33;;;;;;;92.55;61.17;;;29.20;99.90;;;;;;5074411;28;20032;-64
2023/10/25 02:05:00;;;;;;;86.05;59.80;;;29.30;99.90;;;;;;5073917;28;20081;-64
2023/10/25 02:07:27;;;;;;;89.55;62.33;;;29.20;99.90;;;;;;5073944;28;20441;-64
2023/10/25 02:09:54;;;;;;;96.45;63.45;;;29.30;99.90;;;;;;5073880;28;20040;-66
2023/10/25 02:12:21;;;;;;;106.40;68.88;;;29.30;99.90;;;;;;5073776;28;20021;-64
2023/10/25 02:14:48;;;;;;;109.70;67.95;;;29.40;99.90;;;;;;5072878;28;20469;-65
2023/10/25 02:17:14;;;;;;;87.88;62.00;;;29.50;99.90;;;;;;5073826;28;20595;-65
2023/10/25 02:19:41;;;;;;;95.90;63.67;;;29.60;99.90;;;;;;5073598;28;20029;-65
2023/10/25 02:22:08;;;;;;;82.45;57.72;;;29.60;99.90;;;;;;5072354;28;20028;-65
2023/10/25 02:24:35;;;;;;;89.35;62.97;;;29.60;99.90;;;;;;5073937;28;20051;-65
2023/10/25 02:27:01;;;;;;;92.80;58.13;;;29.70;99.90;;;;;;5073467;28;20104;-64
2023/10/25 02:29:28;;;;;;;82.57;58.60;;;29.70;99.90;;;;;;5073696;28;20095;-65
2023/10/25 02:31:55;;;;;;;92.88;62.17;;;29.70;99.90;;;;;;5073183;28;20074;-66
2023/10/25 02:34:21;;;;;;;95.05;60.47;;;29.70;99.90;;;;;;5073450;28;20024;-68
2023/10/25 02:36:48;;;;;;;88.22;58.78;;;29.80;99.90;;;;;;5073586;28;20020;-67
2023/10/25 02:39:17;;;;;;;80.03;56.20;;;29.80;99.90;;;;;;5073575;28;20094;-65
2023/10/25 02:41:44;;;;;;;77.35;54.95;;;29.80;99.90;;;;;;5073176;28;20082;-65
2023/10/25 02:44:11;;;;;;;78.47;56.60;;;29.80;99.90;;;;;;5073463;28;20171;-65
2023/10/25 02:46:37;;;;;;;75.07;55.80;;;29.90;99.90;;;;;;5073440;28;20044;-65
2023/10/25 02:49:04;;;;;;;77.05;54.00;;;29.90;99.90;;;;;;5073251;28;20071;-66
2023/10/25 02:51:31;;;;;;;84.30;56.85;;;29.90;99.90;;;;;;5073497;28;20107;-66
2023/10/25 02:53:58;;;;;;;89.32;61.85;;;30.00;99.90;;;;;;5073254;28;20513;-65
2023/10/25 02:56:24;;;;;;;89.35;62.80;;;30.10;99.90;;;;;;5073078;28;20067;-65
2023/10/25 02:58:51;;;;;;;90.88;62.05;;;30.20;99.90;;;;;;5073242;28;20541;-66
2023/10/25 03:01:23;;;;;;;96.47;63.35;;;30.10;99.90;;;;;;5073063;28;20136;-66
2023/10/25 03:03:51;;;;;;;83.88;59.75;;;30.10;99.90;;;;;;5073046;28;20027;-65
2023/10/25 03:06:17;;;;;;;89.10;59.55;;;30.20;99.90;;;;;;5073164;28;20025;-66
2023/10/25 03:08:44;;;;;;;83.93;59.20;;;30.20;99.90;;;;;;5073021;28;20025;-66
2023/10/25 03:11:11;;;;;;;87.80;59.83;;;30.40;99.90;;;;;;5072813;28;20477;-65
2023/10/25 03:13:38;;;;;;;90.45;63.25;;;30.40;99.90;;;;;;5064874;28;20039;-66
2023/10/25 03:16:05;;;;;;;87.18;58.88;;;30.60;99.90;;;;;;5066991;28;20107;-66
2023/10/25 03:18:33;;;;;;;82.47;58.80;;;30.70;99.90;;;;;;5052853;28;20427;-65
2023/10/25 03:21:04;;;;;;;87.35;59.33;;;30.70;99.90;;;;;;5052941;28;20120;-65
2023/10/25 03:23:32;;;;;;;83.13;56.08;;;30.80;99.90;;;;;;5053038;28;20029;-66
2023/10/25 03:26:07;;;;;;;76.20;53.60;;;30.90;99.90;;;;;;5062391;28;20020;-66
2023/10/25 03:28:34;;;;;;;78.53;54.97;;;31.00;99.90;;;;;;5072968;28;20021;-68
2023/10/25 03:31:06;;;;;;;83.82;54.75;;;31.20;99.90;;;;;;5072874;28;20039;-67
2023/10/25 03:33:33;;;;;;;76.30;52.35;;;31.20;99.90;;;;;;5073067;28;20029;-67
2023/10/25 03:36:00;;;;;;;78.70;54.15;;;31.20;99.90;;;;;;5072928;28;20037;-68
2023/10/25 03:38:27;;;;;;;169.02;118.25;;;31.20;99.90;;;;;;5072679;28;20392;-65
2023/10/25 03:41:04;;;;;;;97.75;69.55;;;31.20;99.90;;;;;;5072783;28;20021;-66
2023/10/25 03:43:32;;;;;;;95.93;68.03;;;31.20;99.90;;;;;;5074757;28;20027;-66
2023/10/25 03:46:09;;;;;;;106.05;77.32;;;31.20;99.90;;;;;;5076572;28;20387;-66
2023/10/25 03:48:37;;;;;;;59.40;46.45;;;31.20;99.90;;;;;;5069982;28;20470;-64
2023/10/25 03:51:05;;;;;;;86.78;54.42;;;31.10;99.90;;;;;;5064935;28;20035;-63
2023/10/25 03:53:35;;;;;;;93.20;68.55;;;31.00;99.90;;;;;;5068387;28;20035;-65
2023/10/25 03:56:02;;;;;;;104.22;72.78;;;31.00;99.90;;;;;;5070435;28;20029;-66
2023/10/25 03:58:29;;;;;;;74.80;54.20;;;31.00;99.90;;;;;;5056261;28;20389;-65
2023/10/25 04:01:07;;;;;;;84.68;59.08;;;31.00;99.90;;;;;;5056355;28;20119;-65
2023/10/25 04:03:34;;;;;;;71.13;53.70;;;31.00;99.90;;;;;;5056326;28;20041;-65
2023/10/25 04:06:00;;;;;;;61.83;48.58;;;31.10;99.90;;;;;;5056247;28;20051;-64
2023/10/25 04:08:27;;;;;;;53.13;44.35;;;31.20;99.90;;;;;;5056126;28;20036;-64
2023/10/25 04:10:55;;;;;;;71.45;50.33;;;31.40;99.90;;;;;;5056224;28;20025;-65
2023/10/25 04:13:22;;;;;;;60.72;47.25;;;31.50;99.90;;;;;;5055939;28;20469;-65
2023/10/25 04:16:00;;;;;;;61.42;46.88;;;31.60;99.90;;;;;;5056077;28;20024;-65
2023/10/25 04:18:29;;;;;;;57.45;44.00;;;31.70;99.90;;;;;;5056223;28;20102;-65
2023/10/25 04:20:57;;;;;;;84.50;63.25;;;31.80;99.90;;;;;;5055898;28;20029;-66
2023/10/25 04:23:26;;;;;;;58.60;44.03;;;31.90;99.90;;;;;;5056022;28;20040;-66
2023/10/25 04:26:02;;;;;;;63.17;49.15;;;31.90;99.90;;;;;;5055744;28;20037;-66
2023/10/25 04:28:29;;;;;;;91.03;73.35;;;32.00;99.90;;;;;;5055803;28;20025;-65
2023/10/25 04:30:55;;;;;;;83.75;65.30;;;32.00;99.90;;;;;;5055768;28;20029;-69
2023/10/25 04:33:22;;;;;;;55.42;48.03;;;32.00;99.90;;;;;;5055657;28;20389;-66
2023/10/25 04:35:49;;;;;;;55.72;46.45;;;32.00;99.90;;;;;;5055716;28;20478;-65
2023/10/25 04:38:15;;;;;;;54.22;45.50;;;32.10;99.90;;;;;;5055754;28;20048;-66
2023/10/25 04:40:42;;;;;;;53.97;45.30;;;32.10;99.90;;;;;;5055409;28;20390;-65
2023/10/25 04:43:09;;;;;;;51.20;43.00;;;32.20;99.90;;;;;;5055706;28;20017;-66
2023/10/25 04:45:36;;;;;;;51.88;45.47;;;32.30;99.90;;;;;;5055569;28;20031;-65
2023/10/25 04:48:03;;;;;;;59.58;45.47;;;32.40;99.90;;;;;;5055308;28;20029;-66
2023/10/25 04:50:34;;;;;;;67.90;53.90;;;32.40;99.90;;;;;;5055414;28;20029;-66
2023/10/25 04:53:02;;;;;;;68.10;54.58;;;32.40;99.90;;;;;;5055525;28;20104;-67
2023/10/25 04:55:31;;;;;;;86.05;63.30;;;32.40;99.90;;;;;;5055074;28;20091;-66
2023/10/25 04:57:58;;;;;;;63.33;52.60;;;32.40;99.90;;;;;;5055257;28;20029;-65
2023/10/25 05:00:25;;;;;;;60.78;47.88;;;32.50;99.90;;;;;;5055138;28;20557;-65
2023/10/25 05:02:52;;;;;;;54.05;46.30;;;32.60;99.90;;;;;;5055002;28;20108;-65
2023/10/25 05:05:19;;;;;;;63.63;51.80;;;32.60;99.90;;;;;;5055161;28;20032;-66
2023/10/25 05:07:46;;;;;;;63.72;50.85;;;32.60;99.90;;;;;;5055060;28;20051;-65
2023/10/25 05:10:13;;;;;;;67.20;52.30;;;32.70;99.90;;;;;;5055074;28;20017;-67
2023/10/25 05:12:45;;;;;;;66.63;55.30;;;32.70;99.90;;;;;;5055385;28;20100;-65
2023/10/25 05:15:14;;;;;;;70.28;55.78;;;32.70;99.90;;;;;;5054953;28;20025;-66
2023/10/25 05:17:43;;;;;;;77.10;57.95;;;32.80;99.90;;;;;;5054949;28;20036;-66
2023/10/25 05:20:10;;;;;;;77.65;61.30;;;32.80;99.90;;;;;;5054771;28;20529;-63
2023/10/25 05:22:40;;;;;;;88.20;63.47;;;32.80;99.90;;;;;;5059797;28;20077;-62
2023/10/25 05:25:08;;;;;;;74.20;59.28;;;33.00;99.90;;;;;;5071914;28;20484;-66
2023/10/25 05:27:36;;;;;;;79.10;58.92;;;33.00;99.90;;;;;;5074412;28;20021;-64
2023/10/25 05:30:09;;;;;;;85.97;61.50;;;33.00;99.90;;;;;;5074173;28;20091;-67
2023/10/25 05:32:37;;;;;;;83.60;62.50;;;33.00;99.90;;;;;;5075285;28;20422;-64
2023/10/25 05:35:06;;;;;;;83.75;61.08;;;32.90;99.90;;;;;;5075750;28;20074;-65
2023/10/25 05:37:33;;;;;;;143.43;112.82;;;33.00;99.90;;;;;;5074686;28;20029;-64
2023/10/25 05:40:00;;;;;;;199.18;144.73;;;33.10;99.90;;;;;;5074010;28;20077;-64
2023/10/25 05:42:27;;;;;;;228.65;161.93;;;33.10;99.90;;;;;;5060239;28;20052;-63
2023/10/25 05:44:55;;;;;;;111.80;83.00;;;33.10;99.90;;;;;;5054217;28;20021;-63
2023/10/25 05:47:22;;;;;;;91.47;69.78;;;33.10;99.90;;;;;;5069305;28;20064;-64
2023/10/25 05:49:50;;;;;;;98.65;73.53;;;33.10;99.90;;;;;;5065891;28;20021;-63
2023/10/25 05:52:17;;;;;;;104.72;75.72;;;33.10;99.90;;;;;;5064021;28;20017;-66
2023/10/25 05:54:44;;;;;;;110.20;76.82;;;33.10;99.90;;;;;;5062871;28;20105;-67
2023/10/25 05:57:12;;;;;;;105.43;73.45;;;33.10;99.90;;;;;;5054668;28;20434;-64
2023/10/25 05:59:40;;;;;;;108.10;76.50;;;33.20;99.90;;;;;;5054128;28;20056;-64
2023/10/25 06:02:14;;;;;;;110.28;79.68;;;33.30;99.90;;;;;;5054106;28;20075;-64
2023/10/25 06:04:42;;;;;;;116.25;81.80;;;33.40;99.90;;;;;;5054059;28;20027;-64
2023/10/25 06:07:10;;;;;;;110.25;80.00;;;33.50;99.90;;;;;;5053583;28;20033;-64
2023/10/25 06:09:38;;;;;;;116.10;82.88;;;33.50;99.90;;;;;;5054133;28;20021;-64
2023/10/25 06:12:06;;;;;;;117.72;84.13;;;33.60;99.90;;;;;;5054112;28;20021;-63
2023/10/25 06:14:33;;;;;;;122.55;86.90;;;33.70;99.90;;;;;;5053852;28;20036;-65
2023/10/25 06:17:00;;;;;;;124.18;87.05;;;33.70;99.90;;;;;;5054131;28;20524;-62
2023/10/25 06:19:27;;;;;;;118.78;86.60;;;33.80;99.90;;;;;;5053773;28;20047;-64
2023/10/25 06:21:55;;;;;;;128.13;88.63;;;33.90;99.90;;;;;;5053716;28;20033;-63
2023/10/25 06:24:22;;;;;;;130.32;87.95;;;33.90;99.90;;;;;;5054346;28;20025;-64
2023/10/25 06:26:49;;;;;;;128.15;90.05;;;33.90;99.90;;;;;;5053586;28;20068;-65
2023/10/25 06:29:16;;;;;;;130.93;89.30;;;33.90;99.90;;;;;;5053928;28;20086;-64
2023/10/25 06:31:45;;;;;;;131.40;91.20;;;33.90;99.90;;;;;;5053617;28;20055;-65
2023/10/25 06:34:11;;;;;;;139.82;94.57;;;33.90;99.90;;;;;;5053789;28;20390;-65
2023/10/25 06:36:38;;;;;;;131.30;90.50;;;33.80;99.90;;;;;;5054118;28;20028;-65
2023/10/25 06:39:07;;;;;;;129.85;93.28;;;33.80;99.90;;;;;;5054163;28;20462;-63
2023/10/25 06:41:35;;;;;;;128.07;92.30;;;33.80;99.90;;;;;;5053710;28;20032;-63
2023/10/25 06:44:04;;;;;;;131.40;92.85;;;33.90;99.90;;;;;;5061457;28;20408;-65
2023/10/25 06:46:31;;;;;;;132.18;91.43;;;33.90;99.90;;;;;;5073828;28;20025;-65
2023/10/25 06:48:58;;;;;;;130.45;91.07;;;33.90;99.90;;;;;;5073226;28;20025;-60
2023/10/25 06:51:25;;;;;;;130.90;92.97;;;33.90;99.90;;;;;;5073525;28;20032;-60
2023/10/25 06:53:53;;;;;;;140.13;95.35;;;34.00;99.90;;;;;;5074200;28;20025;-60
2023/10/25 06:56:21;;;;;;;134.45;95.32;;;34.10;99.90;;;;;;5073575;28;20436;-60
2023/10/25 06:58:48;;;;;;;129.13;94.32;;;34.10;99.90;;;;;;5073720;28;20277;-61
2023/10/25 07:01:18;;;;;;;129.82;93.13;;;34.10;99.90;;;;;;5073190;28;20086;-61
2023/10/25 07:03:48;;;;;;;133.52;95.65;;;34.00;99.90;;;;;;5073927;28;20460;-61
2023/10/25 07:06:17;;;;;;;131.25;94.15;;;34.00;99.90;;;;;;5073384;28;20016;-61
2023/10/25 07:08:45;;;;;;;131.93;95.68;;;34.00;99.90;;;;;;5073423;28;20055;-63
2023/10/25 07:11:12;;;;;;;123.07;89.88;;;34.10;99.90;;;;;;5073153;28;20029;-61
2023/10/25 07:13:39;;;;;;;131.43;92.35;;;34.20;99.90;;;;;;5073510;28;20094;-61
2023/10/25 07:16:07;;;;;;;149.50;112.82;;;34.20;99.90;;;;;;5073661;28;20035;-62
2023/10/25 07:18:34;;;;;;;126.20;90.85;;;34.20;99.90;;;;;;5076401;28;20078;-63
2023/10/25 07:21:01;;;;;;;136.43;95.38;;;34.20;99.90;;;;;;5077175;28;20362;-63
2023/10/25 07:23:27;;;;;;;128.15;90.57;;;34.20;99.90;;;;;;5076939;28;20090;-63
2023/10/25 07:25:54;;;;;;;135.65;98.47;;;34.20;99.90;;;;;;5076778;28;20027;-63
2023/10/25 07:28:21;;;;;;;136.95;94.45;;;34.20;99.90;;;;;;5076884;28;20048;-63
2023/10/25 07:30:48;;;;;;;131.40;95.35;;;34.30;99.90;;;;;;5076865;28;20107;-62
2023/10/25 07:33:17;;;;;;;128.10;95.68;;;34.30;99.90;;;;;;5076978;28;20103;-62
2023/10/25 07:35:44;;;;;;;147.48;109.25;;;34.30;99.90;;;;;;5076745;28;20488;-62
2023/10/25 07:38:11;;;;;;;133.88;98.68;;;34.30;99.90;;;;;;5076762;28;20042;-63
2023/10/25 07:40:40;;;;;;;132.38;95.63;;;34.30;99.90;;;;;;5076426;28;20388;-63
2023/10/25 07:43:06;;;;;;;127.80;93.70;;;34.40;99.90;;;;;;5076566;28;20108;-63
2023/10/25 07:45:33;;;;;;;138.00;95.95;;;34.40;99.90;;;;;;5076687;28;20024;-62
2023/10/25 07:48:00;;;;;;;150.88;108.10;;;34.50;99.90;;;;;;5076299;28;20032;-62
2023/10/25 07:50:27;;;;;;;169.45;123.18;;;34.60;99.90;;;;;;5076400;28;20073;-63
2023/10/25 07:52:53;;;;;;;128.57;96.90;;;34.60;99.90;;;;;;5076489;28;20020;-63
2023/10/25 07:55:20;;;;;;;185.57;132.75;;;34.70;99.90;;;;;;5076257;28;20545;-63
2023/10/25 07:57:47;;;;;;;129.20;94.63;;;34.70;99.90;;;;;;5076316;28;20107;-63
2023/10/25 08:00:14;;;;;;;141.20;103.80;;;34.70;99.90;;;;;;5074844;28;20454;-62
2023/10/25 08:02:40;;;;;;;153.77;111.55;;;34.80;99.90;;;;;;5076113;28;20488;-62
2023/10/25 08:05:08;;;;;;;148.02;109.32;;;34.80;99.90;;;;;;5076159;28;20029;-62
2023/10/25 08:07:36;;;;;;;127.90;93.22;;;34.80;99.90;;;;;;5076062;28;20476;-62
2023/10/25 08:10:05;;;;;;;162.70;117.07;;;34.80;99.90;;;;;;5075885;28;20040;-62
2023/10/25 08:12:35;;;;;;;156.10;118.07;;;34.80;99.90;;;;;;5076008;28;20025;-63
2023/10/25 08:15:02;;;;;;;128.50;93.45;;;34.80;99.90;;;;;;5075975;28;20111;-62
2023/10/25 08:17:29;;;;;;;114.38;87.40;;;34.80;99.90;;;;;;5075797;28;20031;-62
2023/10/25 08:19:56;;;;;;;125.75;89.75;;;34.90;99.90;;;;;;5076067;28;20385;-62
2023/10/25 08:22:23;;;;;;;133.40;95.65;;;34.90;99.90;;;;;;5075807;28;20036;-63
2023/10/25 08:24:50;;;;;;;124.68;90.00;;;34.80;99.90;;;;;;5075743;28;20466;-63
2023/10/25 08:27:18;;;;;;;131.40;99.68;;;34.80;99.90;;;;;;5075768;28;20063;-63
2023/10/25 08:29:45;;;;;;;128.43;97.15;;;34.80;99.90;;;;;;5074931;28;20021;-63
2023/10/25 08:32:12;;;;;;;159.60;119.45;;;34.70;99.90;;;;;;5075481;28;20035;-62
2023/10/25 08:34:45;;;;;;;133.13;97.95;;;34.70;99.90;;;;;;5075750;28;20166;-62
2023/10/25 08:37:11;;;;;;;141.05;104.07;;;34.70;99.80;;;;;;5075548;28;20055;-62
2023/10/25 08:39:38;;;;;;;136.90;97.35;;;34.70;99.80;;;;;;5075442;28;20020;-63
2023/10/25 08:42:10;;;;;;;133.23;97.57;;;34.70;99.90;;;;;;5075508;28;20027;-63
2023/10/25 08:44:40;;;;;;;126.07;95.43;;;34.70;99.90;;;;;;5075403;28;20029;-63
2023/10/25 08:47:09;;;;;;;134.55;96.30;;;34.70;99.90;;;;;;5062978;28;20028;-63
2023/10/25 08:49:37;;;;;;;131.77;100.18;;;34.70;99.90;;;;;;5091602;28;20028;-64
2023/10/25 08:52:05;;;;;;;130.55;97.70;;;34.70;99.90;;;;;;5095573;28;20388;-64
2023/10/25 08:54:33;;;;;;;129.27;95.78;;;34.70;99.90;;;;;;5095812;28;20020;-63
2023/10/25 08:57:00;;;;;;;122.13;93.68;;;34.70;99.90;;;;;;5075234;28;20032;-63
2023/10/25 08:59:27;;;;;;;128.85;94.45;;;34.70;99.90;;;;;;5058690;28;20021;-63
2023/10/25 09:01:55;;;;;;;119.15;91.03;;;34.70;99.90;;;;;;5064044;28;20048;-63
2023/10/25 09:04:22;;;;;;;135.30;97.50;;;34.70;99.90;;;;;;5055219;28;20029;-62
2023/10/25 09:06:49;;;;;;;142.60;100.65;;;34.70;99.90;;;;;;5055139;28;20021;-62
2023/10/25 09:09:16;;;;;;;150.50;109.30;;;34.70;99.90;;;;;;5056415;28;20032;-64
2023/10/25 09:11:45;;;;;;;143.07;99.35;;;34.70;99.90;;;;;;5064266;28;20021;-64
2023/10/25 09:14:13;;;;;;;137.98;97.30;;;34.60;99.90;;;;;;5075007;28;20027;-64
2023/10/25 09:16:42;;;;;;;137.80;101.95;;;34.60;99.90;;;;;;5075209;28;20032;-63
2023/10/25 09:19:10;;;;;;;131.27;102.25;;;34.60;99.30;;;;;;5075063;28;20013;-64
2023/10/25 09:21:37;;;;;;;119.00;87.65;;;34.50;99.90;;;;;;5075259;28;20028;-62
2023/10/25 09:24:07;;;;;;;107.45;77.25;;;34.40;99.90;;;;;;5074753;28;20102;-63
2023/10/25 09:26:37;;;;;;;105.03;76.78;;;34.30;99.90;;;;;;5074898;28;20017;-62
2023/10/25 09:29:04;;;;;;;110.38;78.95;;;34.10;99.90;;;;;;5074490;28;20020;-61
2023/10/25 09:31:31;;;;;;;97.25;71.15;;;34.00;99.90;;;;;;5074740;28;20027;-62
2023/10/25 09:34:00;;;;;;;129.68;99.35;;;34.00;99.90;;;;;;5074627;28;20457;-62
2023/10/25 09:36:28;;;;;;;270.02;196.57;;;33.90;99.90;;;;;;5072029;28;20431;-62
2023/10/25 09:38:56;;;;;;;208.32;149.65;;;33.80;99.90;;;;;;5074558;28;20016;-62
2023/10/25 09:41:26;;;;;;;111.18;80.85;;;33.70;99.90;;;;;;5073438;28;20013;-62
2023/10/25 09:43:58;;;;;;;90.57;64.57;;;33.60;99.90;;;;;;5074242;28;20389;-61
2023/10/25 09:46:30;;;;;;;80.35;61.50;;;33.60;99.90;;;;;;5071597;28;20099;-61
2023/10/25 09:49:07;;;;;;;76.10;59.13;;;33.50;99.90;;;;;;5074136;28;20026;-61
2023/10/25 09:51:40;;;;;;;74.53;55.60;;;33.50;99.90;;;;;;5072866;28;20456;-62
2023/10/25 09:54:12;;;;;;;77.97;56.08;;;33.40;99.90;;;;;;5071749;28;20032;-61
2023/10/25 09:56:40;;;;;;;96.90;67.63;;;33.40;99.90;;;;;;5074168;28;20016;-62
2023/10/25 09:59:11;;;;;;;81.05;60.60;;;33.20;99.90;;;;;;5071455;28;20024;-62
2023/10/25 10:01:39;;;;;;;85.47;60.25;;;33.00;99.90;;;;;;5073730;28;20040;-62
2023/10/25 10:04:09;;;;;;;88.80;64.22;;;33.00;99.90;;;;;;5071211;28;20021;-62
2023/10/25 10:06:41;;;;;;;94.00;69.28;;;33.00;99.90;;;;;;5073859;28;20100;-62
2023/10/25 10:09:22;;;;;;;122.40;84.93;;;33.00;99.90;;;;;;5071153;28;20021;-63
2023/10/25 10:11:59;;;;;;;137.15;92.63;;;33.00;99.90;;;;;;5071310;28;20104;-62
2023/10/25 10:14:37;;;;;;;149.48;102.07;;;32.90;99.90;;;;;;5065517;28;20354;-62
2023/10/25 10:17:21;;;;;;;158.00;104.20;;;32.90;99.90;;;;;;5073415;28;20017;-62
2023/10/25 10:19:50;;;;;;;174.05;116.78;;;32.80;99.90;;;;;;5068218;28;20472;-62
2023/10/25 10:22:18;;;;;;;163.88;110.50;;;32.80;99.90;;;;;;5072129;28;20025;-63
2023/10/25 10:24:52;;;;;;;189.23;130.50;;;32.80;99.90;;;;;;5072959;28;20484;-63
2023/10/25 10:27:20;;;;;;;179.13;124.57;;;32.80;99.90;;;;;;5070769;28;20035;-64
2023/10/25 10:29:48;;;;;;;157.38;106.68;;;32.80;99.90;;;;;;5072074;28;20013;-64
2023/10/25 10:32:16;;;;;;;145.35;104.03;;;32.80;99.90;;;;;;5069389;28;20020;-65
2023/10/25 10:34:49;;;;;;;163.73;109.53;;;32.80;99.90;;;;;;5072072;28;20323;-64
2023/10/25 10:37:22;;;;;;;162.70;116.22;;;32.80;99.90;;;;;;5071726;28;20017;-65
2023/10/25 10:40:08;;;;;;;172.30;118.88;;;32.70;99.90;;;;;;5072342;28;20021;-63
2023/10/25 10:42:35;;;;;;;165.75;116.13;;;32.70;99.90;;;;;;5067950;28;20040;-64
2023/10/25 10:45:07;;;;;;;167.13;112.82;;;32.70;99.90;;;;;;5070065;28;20424;-64
2023/10/25 10:47:35;;;;;;;168.50;113.85;;;32.70;99.90;;;;;;5073545;28;20074;-65
2023/10/25 10:50:19;;;;;;;163.20;114.10;;;32.60;99.90;;;;;;5073816;28;20020;-64
2023/10/25 10:52:48;;;;;;;148.32;106.30;;;32.60;99.90;;;;;;5068471;28;20035;-63
2023/10/25 10:55:18;;;;;;;148.80;105.22;;;32.50;99.90;;;;;;5071646;28;20441;-65
2023/10/25 10:57:45;;;;;;;139.50;99.22;;;32.50;99.90;;;;;;5073188;28;20021;-65
2023/10/25 11:00:16;;;;;;;143.32;101.20;;;32.50;99.90;;;;;;5070919;28;20036;-67
2023/10/25 11:02:48;;;;;;;127.32;91.13;;;32.50;99.90;;;;;;5051044;28;20053;-63
2023/10/25 11:05:15;;;;;;;145.70;96.97;;;32.50;99.90;;;;;;5050979;28;20071;-68
2023/10/25 11:07:42;;;;;;;135.45;95.82;;;32.40;99.90;;;;;;5049438;28;20025;-67
2023/10/25 11:10:10;;;;;;;135.63;90.47;;;32.40;99.90;;;;;;5052444;28;20028;-66
2023/10/25 11:12:37;;;;;;;148.10;100.63;;;32.30;99.90;;;;;;5050362;28;20539;-63
2023/10/25 11:15:06;;;;;;;137.77;96.40;;;32.30;99.90;;;;;;5052621;28;20071;-64
2023/10/25 11:17:33;;;;;;;164.43;116.97;;;32.30;99.90;;;;;;5052177;28;20028;-65
2023/10/25 11:20:01;;;;;;;172.98;119.47;;;32.20;99.90;;;;;;5052623;28;20025;-63
2023/10/25 11:22:30;;;;;;;177.95;122.90;;;32.20;99.90;;;;;;5050014;28;20426;-65
2023/10/25 11:24:58;;;;;;;132.18;91.93;;;32.20;99.90;;;;;;5052530;28;20013;-65
2023/10/25 11:27:35;;;;;;;113.97;82.05;;;32.20;99.90;;;;;;5052493;28;20066;-65
2023/10/25 11:30:05;;;;;;;117.07;82.03;;;32.20;99.90;;;;;;5045980;28;20315;-63
2023/10/25 11:32:34;;;;;;;104.30;75.90;;;32.20;99.90;;;;;;5051422;28;20099;-63
2023/10/25 11:35:02;;;;;;;114.75;82.03;;;32.10;99.90;;;;;;5051068;28;20067;-63
2023/10/25 11:37:42;;;;;;;116.90;83.80;;;32.10;99.90;;;;;;5052584;28;20025;-63
2023/10/25 11:40:09;;;;;;;131.40;91.20;;;32.10;99.90;;;;;;5052143;28;20032;-64
2023/10/25 11:42:36;;;;;;;116.85;85.82;;;32.10;99.90;;;;;;5051722;28;20033;-63
2023/10/25 11:45:05;;;;;;;110.50;82.90;;;32.10;99.90;;;;;;5052427;28;20013;-64
2023/10/25 11:47:32;;;;;;;117.60;81.18;;;32.10;99.90;;;;;;5052724;28;20075;-64
2023/10/25 11:50:00;;;;;;;106.65;78.90;;;32.10;99.90;;;;;;5051323;28;20025;-64
2023/10/25 11:52:29;;;;;;;99.57;75.03;;;32.00;99.90;;;;;;5052677;28;20025;-64
2023/10/25 11:54:57;;;;;;;105.95;74.50;;;32.00;99.90;;;;;;5052633;28;20017;-63
2023/10/25 11:57:27;;;;;;;102.70;75.20;;;31.90;99.90;;;;;;5052439;28;20032;-63
2023/10/25 11:59:54;;;;;;;176.50;138.80;;;31.90;99.90;;;;;;5052663;28;20021;-63
2023/10/25 12:02:25;;;;;;;122.97;91.57;;;31.90;99.90;;;;;;5052111;28;20050;-63
2023/10/25 12:04:53;;;;;;;227.45;133.07;;;31.80;99.90;;;;;;5054938;28;20029;-63
2023/10/25 12:07:21;;;;;;;151.13;103.05;;;31.70;99.90;;;;;;5056398;28;20474;-63
2023/10/25 12:09:51;;;;;;;195.25;122.47;;;31.70;99.90;;;;;;5056246;28;20025;-64
2023/10/25 12:12:18;;;;;;;129.73;90.40;;;31.60;99.90;;;;;;5056166;28;20028;-63
2023/10/25 12:14:45;;;;;;;380.85;309.60;;;31.50;99.90;;;;;;5056252;28;20054;-62
2023/10/25 12:17:12;;;;;;;288.85;218.68;;;31.50;99.90;;;;;;5056168;28;20481;-64
2023/10/25 12:19:39;;;;;;;254.40;197.02;;;31.50;99.90;;;;;;5056081;28;20060;-64
2023/10/25 12:22:09;;;;;;;168.93;129.68;;;31.50;99.90;;;;;;5054754;28;20013;-64
2023/10/25 12:24:37;;;;;;;170.57;125.63;;;31.50;99.90;;;;;;5055569;28;20051;-64